createdAt,value
2018-12-14T00:02:05.976Z,13.28
2018-12-14T00:04:34.424Z,14.70
2018-12-14T00:07:02.870Z,13.03
2018-12-14T00:09:31.358Z,14.25
2018-12-14T00:12:00.126Z,13.15
2018-12-14T00:14:27.441Z,12.70
2018-12-14T00:16:55.756Z,12.85
2018-12-14T00:19:24.329Z,14.07
2018-12-14T00:21:52.784Z,13.40
2018-12-14T00:24:21.517Z,12.55
2018-12-14T00:26:50.089Z,14.25
2018-12-14T00:29:18.501Z,12.78
2018-12-14T00:31:46.970Z,13.48
2018-12-14T00:34:15.378Z,13.62
2018-12-14T00:36:45.754Z,12.55
2018-12-14T00:39:13.102Z,12.40
2018-12-14T00:41:40.408Z,13.05
2018-12-14T00:44:08.974Z,12.90
2018-12-14T00:46:42.031Z,12.53
2018-12-14T00:49:10.442Z,13.80
2018-12-14T00:51:39.113Z,13.35
2018-12-14T00:54:08.878Z,14.38
2018-12-14T00:56:36.853Z,13.00
2018-12-14T00:59:05.556Z,12.50
2018-12-14T01:01:33.189Z,11.60
2018-12-14T01:04:01.725Z,14.03
2018-12-14T01:06:30.384Z,12.03
2018-12-14T01:08:58.802Z,11.78
2018-12-14T01:11:30.653Z,12.60
2018-12-14T01:13:57.981Z,11.68
2018-12-14T01:16:25.620Z,13.10
2018-12-14T01:18:53.041Z,12.88
2018-12-14T01:21:21.534Z,12.82
2018-12-14T01:23:49.956Z,12.00
2018-12-14T01:26:17.465Z,13.00
2018-12-14T01:28:46.892Z,12.65
2018-12-14T01:31:14.286Z,12.45
2018-12-14T01:33:42.747Z,12.00
2018-12-14T01:36:11.054Z,13.20
2018-12-14T01:38:39.746Z,12.85
2018-12-14T01:41:08.906Z,11.97
2018-12-14T01:43:37.282Z,14.03
2018-12-14T01:46:04.919Z,12.30
2018-12-14T01:48:33.313Z,13.30
2018-12-14T01:51:01.786Z,13.35
2018-12-14T01:53:30.212Z,12.37
2018-12-14T01:55:58.641Z,12.03
2018-12-14T01:58:26.073Z,13.30
2018-12-14T02:00:54.596Z,12.33
2018-12-14T02:03:22.970Z,13.30
2018-12-14T02:05:51.474Z,13.98
2018-12-14T02:08:19.902Z,13.72
2018-12-14T02:10:48.509Z,13.25
2018-12-14T02:13:15.840Z,12.70
2018-12-14T02:15:44.517Z,14.23
2018-12-14T02:18:13.245Z,14.15
2018-12-14T02:20:44.857Z,13.00
2018-12-14T02:23:12.229Z,13.48
2018-12-14T02:25:39.565Z,13.45
2018-12-14T02:28:06.993Z,13.25
2018-12-14T02:30:41.232Z,14.45
2018-12-14T02:33:08.653Z,14.65
2018-12-14T02:35:37.237Z,15.32
2018-12-14T02:38:05.882Z,14.10
2018-12-14T02:40:34.342Z,13.78
2018-12-14T02:43:02.956Z,14.70
2018-12-14T02:45:31.543Z,14.30
2018-12-14T02:48:00.083Z,15.30
2018-12-14T02:50:28.623Z,15.32
2018-12-14T02:52:57.162Z,15.23
2018-12-14T02:55:25.542Z,14.50
2018-12-14T02:57:53.947Z,14.07
2018-12-14T03:00:22.423Z,13.60
2018-12-14T03:02:49.829Z,14.85
2018-12-14T03:05:18.253Z,14.53
2018-12-14T03:07:46.617Z,15.03
2018-12-14T03:10:15.016Z,14.65
2018-12-14T03:12:43.633Z,13.93
2018-12-14T03:15:12.412Z,15.23
2018-12-14T03:17:41.184Z,13.68
2018-12-14T03:20:09.955Z,13.48
2018-12-14T03:22:38.880Z,13.28
2018-12-14T03:25:07.493Z,14.43
2018-12-14T03:27:35.951Z,12.50
2018-12-14T03:30:06.319Z,13.32
2018-12-14T03:32:34.059Z,14.03
2018-12-14T03:35:01.451Z,13.93
2018-12-14T03:37:29.950Z,14.80
2018-12-14T03:39:58.521Z,13.98
2018-12-14T03:42:34.006Z,14.73
2018-12-14T03:44:57.886Z,15.95
2018-12-14T03:47:26.353Z,14.90
2018-12-14T03:49:54.759Z,14.93
2018-12-14T03:52:23.178Z,15.85
2018-12-14T03:54:51.998Z,15.23
2018-12-14T03:57:19.399Z,14.85
2018-12-14T03:59:48.382Z,15.98
2018-12-14T04:02:16.776Z,14.65
2018-12-14T04:04:46.748Z,14.43
2018-12-14T04:07:14.117Z,14.93
2018-12-14T04:09:41.425Z,14.87
2018-12-14T04:12:09.924Z,15.45
2018-12-14T04:14:38.697Z,15.08
2018-12-14T04:17:07.153Z,13.70
2018-12-14T04:19:35.726Z,15.80
2018-12-14T04:22:03.891Z,16.45
2018-12-14T04:24:32.392Z,15.03
2018-12-14T04:27:00.330Z,15.13
2018-12-14T04:29:29.037Z,14.18
2018-12-14T04:31:57.606Z,15.08
2018-12-14T04:34:26.015Z,15.08
2018-12-14T04:36:53.433Z,15.03
2018-12-14T04:39:22.040Z,15.25
2018-12-14T04:41:50.481Z,14.33
2018-12-14T04:44:18.794Z,14.25
2018-12-14T04:46:47.617Z,14.65
2018-12-14T04:49:14.981Z,14.68
2018-12-14T04:51:43.675Z,14.15
2018-12-14T04:54:12.236Z,14.85
2018-12-14T04:56:40.985Z,14.07
2018-12-14T04:59:09.625Z,14.50
2018-12-14T05:01:37.280Z,14.13
2018-12-14T05:04:09.400Z,13.88
2018-12-14T05:06:38.678Z,14.05
2018-12-14T05:09:06.684Z,15.30
2018-12-14T05:11:34.189Z,14.20
2018-12-14T05:14:02.344Z,14.07
2018-12-14T05:16:30.144Z,12.28
2018-12-14T05:18:58.328Z,13.15
2018-12-14T05:21:26.361Z,15.50
2018-12-14T05:23:54.461Z,14.10
2018-12-14T05:26:29.099Z,14.53
2018-12-14T05:28:57.715Z,13.78
2018-12-14T05:31:25.121Z,14.20
2018-12-14T05:33:52.591Z,14.85
2018-12-14T05:36:19.919Z,16.10
2018-12-14T05:38:47.209Z,14.30
2018-12-14T05:41:14.768Z,15.05
2018-12-14T05:43:42.190Z,13.38
2018-12-14T05:46:09.615Z,14.28
2018-12-14T05:48:38.023Z,13.83
2018-12-14T05:51:06.610Z,14.47
2018-12-14T05:53:33.989Z,14.23
2018-12-14T05:56:02.907Z,14.38
2018-12-14T05:58:31.302Z,14.35
2018-12-14T06:01:00.041Z,15.30
2018-12-14T06:03:28.459Z,14.07
2018-12-14T06:05:55.738Z,14.10
2018-12-14T06:08:24.379Z,15.70
2018-12-14T06:10:52.785Z,14.85
2018-12-14T06:13:21.289Z,14.00
2018-12-14T06:15:49.558Z,15.78
2018-12-14T06:18:17.970Z,14.83
2018-12-14T06:20:46.693Z,14.93
2018-12-14T06:23:15.604Z,14.87
2018-12-14T06:25:42.969Z,14.83
2018-12-14T06:28:11.393Z,14.70
2018-12-14T06:30:39.841Z,13.98
2018-12-14T06:33:08.265Z,14.33
2018-12-14T06:35:36.689Z,13.83
2018-12-14T06:38:05.128Z,14.15
2018-12-14T06:40:33.522Z,15.48
2018-12-14T06:43:02.060Z,14.35
2018-12-14T06:45:31.050Z,14.38
2018-12-14T06:47:58.334Z,13.15
2018-12-14T06:50:28.582Z,14.45
2018-12-14T06:52:57.291Z,14.03
2018-12-14T06:55:25.745Z,14.23
2018-12-14T06:57:54.256Z,15.35
2018-12-14T07:00:22.911Z,14.05
2018-12-14T07:02:51.299Z,14.93
2018-12-14T07:05:19.682Z,14.10
2018-12-14T07:07:48.073Z,14.35
2018-12-14T07:10:16.681Z,15.60
2018-12-14T07:12:45.119Z,14.47
2018-12-14T07:15:13.668Z,13.95
2018-12-14T07:17:42.304Z,15.35
2018-12-14T07:20:10.701Z,15.55
2018-12-14T07:22:39.466Z,13.93
2018-12-14T07:25:07.994Z,14.75
2018-12-14T07:27:36.381Z,12.65
2018-12-14T07:30:05.404Z,13.85
2018-12-14T07:32:33.822Z,13.15
2018-12-14T07:35:02.550Z,14.55
2018-12-14T07:37:30.870Z,15.68
2018-12-14T07:39:59.281Z,15.05
2018-12-14T07:42:27.679Z,14.47
2018-12-14T07:44:56.161Z,12.33
2018-12-14T07:47:24.869Z,14.30
2018-12-14T07:49:53.356Z,14.43
2018-12-14T07:52:21.693Z,13.98
2018-12-14T07:54:53.316Z,13.75
2018-12-14T07:57:20.618Z,13.58
2018-12-14T07:59:48.086Z,13.85
2018-12-14T08:02:16.251Z,13.22
2018-12-14T08:04:43.995Z,13.55
2018-12-14T08:07:13.930Z,12.90
2018-12-14T08:09:41.323Z,12.80
2018-12-14T08:12:10.605Z,13.40
2018-12-14T08:14:37.866Z,12.15
2018-12-14T08:17:06.271Z,12.55
2018-12-14T08:19:34.659Z,14.45
2018-12-14T08:22:03.069Z,13.35
2018-12-14T08:24:31.474Z,12.43
2018-12-14T08:26:59.944Z,12.35
2018-12-14T08:29:28.373Z,13.22
2018-12-14T08:31:57.056Z,11.95
2018-12-14T08:34:25.357Z,13.40
2018-12-14T08:36:54.002Z,12.43
2018-12-14T08:39:22.442Z,11.78
2018-12-14T08:41:50.957Z,13.30
2018-12-14T08:44:19.350Z,12.70
2018-12-14T08:46:47.901Z,13.03
2018-12-14T08:49:16.445Z,11.08
2018-12-14T08:51:43.707Z,12.40
2018-12-14T08:54:12.289Z,14.70
2018-12-14T08:56:40.730Z,12.25
2018-12-14T08:59:09.233Z,10.68
2018-12-14T09:01:37.829Z,11.95
2018-12-14T09:04:06.230Z,12.30
2018-12-14T09:06:34.642Z,12.00
2018-12-14T09:09:05.360Z,11.28
2018-12-14T09:11:33.783Z,12.00
2018-12-14T09:14:02.630Z,11.40
2018-12-14T09:16:30.406Z,11.70
2018-12-14T09:18:58.906Z,11.75
2018-12-14T09:21:27.596Z,10.15
2018-12-14T09:23:56.094Z,12.05
2018-12-14T09:26:29.968Z,10.53
2018-12-14T09:28:57.637Z,11.83
2018-12-14T09:31:25.092Z,11.15
2018-12-14T09:33:52.532Z,11.80
2018-12-14T09:36:19.826Z,12.18
2018-12-14T09:38:47.147Z,11.83
2018-12-14T09:41:16.486Z,10.95
2018-12-14T09:43:45.055Z,11.78
2018-12-14T09:46:13.429Z,10.72
2018-12-14T09:48:41.822Z,10.53
2018-12-14T09:51:12.514Z,11.03
2018-12-14T09:53:43.062Z,11.88
2018-12-14T09:56:10.473Z,10.50
2018-12-14T09:58:37.861Z,10.58
2018-12-14T10:01:05.322Z,10.50
2018-12-14T10:03:33.838Z,10.15
2018-12-14T10:06:06.950Z,10.85
2018-12-14T10:08:34.217Z,10.88
2018-12-14T10:11:02.058Z,10.48
2018-12-14T10:13:29.480Z,10.85
2018-12-14T10:15:56.906Z,10.75
2018-12-14T10:18:25.321Z,10.88
2018-12-14T10:20:58.734Z,11.08
2018-12-14T10:23:26.052Z,10.20
2018-12-14T10:25:53.393Z,11.33
2018-12-14T10:28:20.781Z,11.22
2018-12-14T10:30:48.048Z,10.30
2018-12-14T10:33:20.806Z,11.20
2018-12-14T10:35:48.186Z,11.00
2018-12-14T10:38:15.462Z,9.90
2018-12-14T10:40:42.846Z,11.22
2018-12-14T10:43:10.132Z,11.53
2018-12-14T10:45:37.552Z,10.45
2018-12-14T10:48:10.372Z,10.85
2018-12-14T10:50:39.704Z,12.30
2018-12-14T10:53:11.061Z,11.73
2018-12-14T10:55:38.544Z,10.68
2018-12-14T10:58:05.948Z,10.13
2018-12-14T11:00:41.375Z,10.80
2018-12-14T11:03:08.642Z,11.20
2018-12-14T11:05:37.954Z,12.68
2018-12-14T11:08:06.377Z,11.03
2018-12-14T11:10:38.593Z,12.40
2018-12-14T11:13:05.985Z,11.80
2018-12-14T11:15:33.297Z,11.85
2018-12-14T11:18:00.573Z,10.63
2018-12-14T11:20:28.944Z,11.65
2018-12-14T11:23:00.824Z,10.32
2018-12-14T11:25:28.105Z,10.45
2018-12-14T11:27:55.398Z,11.33
2018-12-14T11:30:23.735Z,12.05
2018-12-14T11:32:51.050Z,11.73
2018-12-14T11:35:24.481Z,9.90
2018-12-14T11:37:51.812Z,12.75
2018-12-14T11:40:19.072Z,12.55
2018-12-14T11:42:46.433Z,11.78
2018-12-14T11:45:13.686Z,11.65
2018-12-14T11:47:47.265Z,10.70
2018-12-14T11:50:14.591Z,11.33
2018-12-14T11:52:41.898Z,11.12
2018-12-14T11:55:09.919Z,11.78
2018-12-14T11:57:38.541Z,12.30
2018-12-14T12:00:12.553Z,10.82
2018-12-14T12:02:43.085Z,11.73
2018-12-14T12:05:09.434Z,11.50
2018-12-14T12:07:38.948Z,13.10
2018-12-14T12:10:12.900Z,11.85
2018-12-14T12:12:40.225Z,12.23
2018-12-14T12:15:07.948Z,11.40
2018-12-14T12:17:36.980Z,11.22
2018-12-14T12:20:04.962Z,11.68
2018-12-14T12:22:41.889Z,11.45
2018-12-14T12:25:09.385Z,11.90
2018-12-14T12:27:36.934Z,12.47
2018-12-14T12:30:05.350Z,11.25
2018-12-14T12:32:32.721Z,11.85
2018-12-14T12:35:02.413Z,13.45
2018-12-14T12:37:29.718Z,12.10
2018-12-14T12:39:57.130Z,11.70
2018-12-14T12:42:24.394Z,12.03
2018-12-14T12:44:52.055Z,12.70
2018-12-14T12:47:19.398Z,11.45
2018-12-14T12:49:52.277Z,12.85
2018-12-14T12:52:19.754Z,10.93
2018-12-14T12:54:47.046Z,10.98
2018-12-14T12:57:14.346Z,12.18
2018-12-14T12:59:42.942Z,11.75
2018-12-14T13:02:15.774Z,11.45
2018-12-14T13:04:43.302Z,12.00
2018-12-14T13:07:10.621Z,12.60
2018-12-14T13:09:37.935Z,11.05
2018-12-14T13:12:05.414Z,12.50
2018-12-14T13:14:39.840Z,12.60
2018-12-14T13:17:05.311Z,12.03
2018-12-14T13:19:32.834Z,12.73
2018-12-14T13:22:00.114Z,14.78
2018-12-14T13:24:27.390Z,11.95
2018-12-14T13:26:54.755Z,13.10
2018-12-14T13:29:23.125Z,12.33
2018-12-14T13:31:52.921Z,12.40
2018-12-14T13:34:20.390Z,12.30
2018-12-14T13:36:48.898Z,11.68
2018-12-14T13:39:17.254Z,12.90
2018-12-14T13:41:45.924Z,12.20
2018-12-14T13:44:17.832Z,12.63
2018-12-14T13:46:45.379Z,11.95
2018-12-14T13:49:12.794Z,12.78
2018-12-14T13:51:40.240Z,12.53
2018-12-14T13:54:08.639Z,13.13
2018-12-14T13:56:42.181Z,11.28
2018-12-14T13:59:09.486Z,12.05
2018-12-14T14:01:36.785Z,12.90
2018-12-14T14:04:04.242Z,14.55
2018-12-14T14:06:31.549Z,13.08
2018-12-14T14:08:58.829Z,12.55
2018-12-14T14:11:27.654Z,12.35
2018-12-14T14:13:55.041Z,12.63
2018-12-14T14:16:23.429Z,13.75
2018-12-14T14:18:51.987Z,12.00
2018-12-14T14:21:20.393Z,12.45
2018-12-14T14:23:52.596Z,15.10
2018-12-14T14:26:19.926Z,15.13
2018-12-14T14:28:48.159Z,12.40
2018-12-14T14:31:16.714Z,12.70
2018-12-14T14:33:44.603Z,11.57
2018-12-14T14:36:18.079Z,12.45
2018-12-14T14:38:45.390Z,11.70
2018-12-14T14:41:12.786Z,11.85
2018-12-14T14:43:40.889Z,12.00
2018-12-14T14:46:08.336Z,13.03
2018-12-14T14:48:35.659Z,12.05
2018-12-14T14:51:05.901Z,13.62
2018-12-14T14:53:33.193Z,12.37
2018-12-14T14:56:00.466Z,12.82
2018-12-14T14:58:29.669Z,12.13
2018-12-14T15:00:58.095Z,12.85
2018-12-14T15:03:26.703Z,12.63
2018-12-14T15:05:55.446Z,12.55
2018-12-14T15:08:22.724Z,11.40
2018-12-14T15:10:51.172Z,12.35
2018-12-14T15:13:19.664Z,13.05
2018-12-14T15:15:48.181Z,12.58
2018-12-14T15:18:16.947Z,11.63
2018-12-14T15:20:48.292Z,11.12
2018-12-14T15:23:15.569Z,11.15
2018-12-14T15:25:42.906Z,13.55
2018-12-14T15:28:10.186Z,11.57
2018-12-14T15:30:38.859Z,13.30
2018-12-14T15:33:09.389Z,11.85
2018-12-14T15:35:36.638Z,13.43
2018-12-14T15:38:04.176Z,13.05
2018-12-14T15:40:32.666Z,12.95
2018-12-14T15:43:01.110Z,11.75
2018-12-14T15:45:29.432Z,12.63
2018-12-14T15:47:57.991Z,13.70
2018-12-14T15:50:26.414Z,13.58
2018-12-14T15:52:54.789Z,13.25
2018-12-14T15:55:23.409Z,13.00
2018-12-14T15:57:51.857Z,11.75
2018-12-14T16:00:20.357Z,12.00
2018-12-14T16:02:49.225Z,13.00
2018-12-14T16:05:18.060Z,13.72
2018-12-14T16:07:46.926Z,13.38
2018-12-14T16:10:15.509Z,13.45
2018-12-14T16:12:42.780Z,12.33
2018-12-14T16:15:11.245Z,13.30
2018-12-14T16:17:39.913Z,13.35
2018-12-14T16:20:09.626Z,14.00
2018-12-14T16:22:38.735Z,13.93
2018-12-14T16:25:08.171Z,12.20
2018-12-14T16:27:37.909Z,12.88
2018-12-14T16:30:08.942Z,13.05
2018-12-14T16:32:37.390Z,12.23
2018-12-14T16:35:05.841Z,13.00
2018-12-14T16:37:34.134Z,12.75
2018-12-14T16:40:02.905Z,13.45
2018-12-14T16:42:31.402Z,12.47
2018-12-14T16:44:59.860Z,13.90
2018-12-14T16:47:28.173Z,14.10
2018-12-14T16:49:56.593Z,14.60
2018-12-14T16:52:25.016Z,15.05
2018-12-14T16:54:53.439Z,12.90
2018-12-14T16:57:22.198Z,13.03
2018-12-14T16:59:50.517Z,14.68
2018-12-14T17:02:19.054Z,13.90
2018-12-14T17:04:47.488Z,13.43
2018-12-14T17:07:16.030Z,12.10
2018-12-14T17:09:44.530Z,13.22
2018-12-14T17:12:12.830Z,13.88
2018-12-14T17:14:41.331Z,12.85
2018-12-14T17:17:09.972Z,13.13
2018-12-14T17:19:38.402Z,13.43
2018-12-14T17:22:07.053Z,12.80
2018-12-14T17:24:35.883Z,12.15
2018-12-14T17:27:04.849Z,13.93
2018-12-14T17:29:32.373Z,13.95
2018-12-14T17:32:00.872Z,12.53
2018-12-14T17:34:29.396Z,14.05
2018-12-14T17:36:57.811Z,12.13
2018-12-14T17:39:25.240Z,12.98
2018-12-14T17:41:54.301Z,11.30
2018-12-14T17:44:22.874Z,11.80
2018-12-14T17:46:51.438Z,12.30
2018-12-14T17:49:19.953Z,12.73
2018-12-14T17:51:48.971Z,12.23
2018-12-14T17:54:17.402Z,11.90
2018-12-14T17:56:45.879Z,12.60
2018-12-14T17:59:14.392Z,10.95
2018-12-14T18:01:42.872Z,10.65
2018-12-14T18:04:11.269Z,12.50
2018-12-14T18:06:39.837Z,11.70
2018-12-14T18:09:08.465Z,10.38
2018-12-14T18:11:37.214Z,11.33
2018-12-14T18:14:05.738Z,11.25
2018-12-14T18:16:34.413Z,11.12
2018-12-14T18:19:03.269Z,11.63
2018-12-14T18:21:30.560Z,10.98
2018-12-14T18:23:58.950Z,11.08
2018-12-14T18:26:27.413Z,10.13
2018-12-14T18:28:55.846Z,11.88
2018-12-14T18:31:24.401Z,10.93
2018-12-14T18:33:52.861Z,11.10
2018-12-14T18:36:21.264Z,11.65
2018-12-14T18:38:49.983Z,11.12
2018-12-14T18:41:18.377Z,11.18
2018-12-14T18:43:46.814Z,10.13
2018-12-14T18:46:15.558Z,10.13
2018-12-14T18:48:42.853Z,9.80
2018-12-14T18:51:11.258Z,8.35
2018-12-14T18:53:41.790Z,7.78
2018-12-14T18:56:10.363Z,8.15
2018-12-14T18:58:39.063Z,8.28
2018-12-14T19:01:07.635Z,8.30
2018-12-14T19:03:36.423Z,6.45
2018-12-14T19:06:05.193Z,7.17
2018-12-14T19:08:33.573Z,7.65
2018-12-14T19:11:01.871Z,7.40
2018-12-14T19:13:30.392Z,7.35
2018-12-14T19:15:59.796Z,9.15
2018-12-14T19:18:28.445Z,9.10
2018-12-14T19:20:56.844Z,9.73
2018-12-14T19:23:25.325Z,8.35
2018-12-14T19:25:53.747Z,7.60
2018-12-14T19:28:23.001Z,8.33
2018-12-14T19:30:51.627Z,8.35
2018-12-14T19:33:18.987Z,8.13
2018-12-14T19:35:47.483Z,8.50
2018-12-14T19:38:15.901Z,9.10
2018-12-14T19:40:44.241Z,8.88
2018-12-14T19:43:12.762Z,9.35
2018-12-14T19:45:41.257Z,10.03
2018-12-14T19:48:09.690Z,9.25
2018-12-14T19:50:38.186Z,11.00
2018-12-14T19:53:06.652Z,7.92
2018-12-14T19:55:35.348Z,8.13
2018-12-14T19:58:02.821Z,7.25
2018-12-14T20:00:31.765Z,8.33
2018-12-14T20:03:00.240Z,6.92
2018-12-14T20:05:28.725Z,7.55
2018-12-14T20:07:57.472Z,8.10
2018-12-14T20:10:24.887Z,7.53
2018-12-14T20:12:53.419Z,8.00
2018-12-14T20:15:21.705Z,8.23
2018-12-14T20:17:50.294Z,7.72
2018-12-14T20:20:18.640Z,8.33
2018-12-14T20:22:47.170Z,7.95
2018-12-14T20:25:15.485Z,7.40
2018-12-14T20:27:44.029Z,8.60
2018-12-14T20:30:12.659Z,9.23
2018-12-14T20:32:41.117Z,8.23
2018-12-14T20:35:09.542Z,9.25
2018-12-14T20:37:37.952Z,8.55
2018-12-14T20:40:06.477Z,7.83
2018-12-14T20:42:34.887Z,8.35
2018-12-14T20:45:03.970Z,6.35
2018-12-14T20:47:32.446Z,7.15
2018-12-14T20:50:01.017Z,6.37
2018-12-14T20:52:29.397Z,6.90
2018-12-14T20:54:57.723Z,7.22
2018-12-14T20:57:26.565Z,6.78
2018-12-14T20:59:54.845Z,6.62
2018-12-14T21:02:23.262Z,6.72
2018-12-14T21:04:51.654Z,8.45
2018-12-14T21:07:20.060Z,7.75
2018-12-14T21:09:49.265Z,8.25
2018-12-14T21:12:17.792Z,8.10
2018-12-14T21:14:50.765Z,8.38
2018-12-14T21:17:16.782Z,7.90
2018-12-14T21:19:44.186Z,7.80
2018-12-14T21:22:12.767Z,8.60
2018-12-14T21:24:41.384Z,8.85
2018-12-14T21:27:09.810Z,8.05
2018-12-14T21:29:38.617Z,8.40
2018-12-14T21:32:07.319Z,8.38
2018-12-14T21:34:35.913Z,8.28
2018-12-14T21:37:03.344Z,9.25
2018-12-14T21:39:31.842Z,8.45
2018-12-14T21:42:00.248Z,9.85
2018-12-14T21:44:28.753Z,13.45
2018-12-14T21:46:57.214Z,13.18
2018-12-14T21:49:25.891Z,13.65
2018-12-14T21:51:53.185Z,13.95
2018-12-14T21:54:21.593Z,12.82
2018-12-14T21:56:50.286Z,9.65
2018-12-14T21:59:18.695Z,10.15
2018-12-14T22:01:47.082Z,10.30
2018-12-14T22:04:15.497Z,9.88
2018-12-14T22:06:43.948Z,9.73
2018-12-14T22:09:12.251Z,9.50
2018-12-14T22:11:40.752Z,10.28
2018-12-14T22:14:09.143Z,9.43
2018-12-14T22:16:39.345Z,9.10
2018-12-14T22:19:08.040Z,9.50
2018-12-14T22:21:37.898Z,8.58
2018-12-14T22:24:05.551Z,9.80
2018-12-14T22:26:34.369Z,9.48
2018-12-14T22:29:02.916Z,9.43
2018-12-14T22:31:31.418Z,10.43
2018-12-14T22:33:59.997Z,9.83
2018-12-14T22:36:28.327Z,9.80
2018-12-14T22:38:55.795Z,11.18
2018-12-14T22:41:24.359Z,9.38
2018-12-14T22:43:52.709Z,9.53
2018-12-14T22:46:21.018Z,9.75
2018-12-14T22:48:49.604Z,9.50
2018-12-14T22:51:18.114Z,9.68
2018-12-14T22:53:47.657Z,10.08
2018-12-14T22:56:14.962Z,9.65
2018-12-14T22:58:43.433Z,9.25
2018-12-14T23:01:12.160Z,9.25
2018-12-14T23:03:39.647Z,9.88
2018-12-14T23:06:07.976Z,9.55
2018-12-14T23:08:36.348Z,9.08
2018-12-14T23:11:05.383Z,9.55
2018-12-14T23:13:34.098Z,9.35
2018-12-14T23:16:01.365Z,9.10
2018-12-14T23:18:29.903Z,8.30
2018-12-14T23:20:58.330Z,9.35
2018-12-14T23:23:26.873Z,8.98
2018-12-14T23:25:55.314Z,8.70
2018-12-14T23:28:24.281Z,10.15
2018-12-14T23:30:51.623Z,9.45
2018-12-14T23:33:20.046Z,9.33
2018-12-14T23:35:48.497Z,8.75
2018-12-14T23:38:16.963Z,8.78
2018-12-14T23:40:45.484Z,9.03
2018-12-14T23:43:13.907Z,9.20
2018-12-14T23:45:42.343Z,10.18
2018-12-14T23:48:10.929Z,8.58
2018-12-14T23:50:39.974Z,8.63
2018-12-14T23:53:08.366Z,7.90
2018-12-14T23:55:36.778Z,8.60
2018-12-14T23:58:05.316Z,9.00
